createdAt,value
2022-09-29T00:00:51.084Z,14.57
2022-09-29T00:03:19.016Z,14.59
2022-09-29T00:05:50.765Z,14.57
2022-09-29T00:08:19.304Z,14.58
2022-09-29T00:10:46.617Z,14.34
2022-09-29T00:13:15.207Z,14.30
2022-09-29T00:15:42.450Z,14.24
2022-09-29T00:18:14.919Z,14.31
2022-09-29T00:20:42.459Z,14.30
2022-09-29T00:23:09.442Z,14.62
2022-09-29T00:25:36.407Z,14.15
2022-09-29T00:28:03.480Z,14.36
2022-09-29T00:30:30.458Z,14.42
2022-09-29T00:32:57.467Z,14.41
2022-09-29T00:35:24.359Z,14.46
2022-09-29T00:37:51.300Z,14.51
2022-09-29T00:40:18.261Z,14.50
2022-09-29T00:42:45.713Z,14.30
2022-09-29T00:45:24.760Z,14.48
2022-09-29T00:48:14.825Z,14.56
2022-09-29T00:50:52.170Z,14.38
2022-09-29T00:53:21.882Z,14.38
2022-09-29T00:56:03.409Z,14.39
2022-09-29T00:58:33.495Z,14.60
2022-09-29T01:01:01.383Z,14.32
2022-09-29T01:03:34.020Z,14.40
2022-09-29T01:06:10.549Z,14.54
2022-09-29T01:08:44.057Z,14.55
2022-09-29T01:11:13.204Z,14.30
2022-09-29T01:13:41.901Z,14.45
2022-09-29T01:16:09.143Z,14.39
2022-09-29T01:18:36.506Z,14.48
2022-09-29T01:21:39.703Z,14.61
2022-09-29T01:24:29.554Z,14.52
2022-09-29T01:27:25.972Z,14.59
2022-09-29T01:29:55.910Z,14.60
2022-09-29T01:32:44.292Z,14.43
2022-09-29T01:35:17.155Z,14.37
2022-09-29T01:38:10.188Z,14.24
2022-09-29T01:40:46.278Z,14.28
2022-09-29T01:43:21.635Z,14.10
2022-09-29T01:46:02.040Z,14.15
2022-09-29T01:48:38.761Z,14.11
2022-09-29T01:51:12.309Z,14.10
2022-09-29T01:53:48.336Z,14.35
2022-09-29T01:56:22.122Z,14.16
2022-09-29T01:59:05.623Z,13.95
2022-09-29T02:01:39.092Z,14.14
2022-09-29T02:04:15.519Z,14.05
2022-09-29T02:06:58.242Z,14.11
2022-09-29T02:09:30.859Z,14.07
2022-09-29T02:12:01.229Z,14.03
2022-09-29T02:14:33.620Z,14.00
2022-09-29T02:17:10.996Z,13.98
2022-09-29T02:19:40.998Z,14.26
2022-09-29T02:22:08.179Z,14.16
2022-09-29T02:24:35.305Z,14.13
2022-09-29T02:27:03.945Z,14.05
2022-09-29T02:29:32.849Z,14.12
2022-09-29T02:32:03.008Z,14.10
2022-09-29T02:34:35.782Z,13.95
2022-09-29T02:37:14.706Z,14.18
2022-09-29T02:39:41.601Z,14.17
2022-09-29T02:42:23.560Z,14.20
2022-09-29T02:45:29.138Z,14.25
2022-09-29T02:48:16.643Z,14.12
2022-09-29T02:50:57.000Z,14.10
2022-09-29T02:53:54.666Z,14.12
2022-09-29T02:56:59.122Z,14.07
2022-09-29T02:59:51.186Z,13.95
2022-09-29T03:02:25.195Z,14.09
2022-09-29T03:04:53.745Z,13.86
2022-09-29T03:07:21.849Z,14.06
2022-09-29T03:09:49.085Z,13.74
2022-09-29T03:12:18.320Z,13.89
2022-09-29T03:14:45.401Z,14.15
2022-09-29T03:17:12.532Z,13.87
2022-09-29T03:19:39.637Z,14.16
2022-09-29T03:22:06.629Z,14.20
2022-09-29T03:24:33.652Z,13.65
2022-09-29T03:27:00.746Z,14.04
2022-09-29T03:29:27.740Z,14.01
2022-09-29T03:31:54.724Z,13.96
2022-09-29T03:34:21.744Z,13.75
2022-09-29T03:36:48.690Z,13.91
2022-09-29T03:39:15.597Z,13.99
2022-09-29T03:41:42.657Z,14.00
2022-09-29T03:44:09.619Z,13.91
2022-09-29T03:46:36.599Z,13.76
2022-09-29T03:49:03.642Z,13.89
2022-09-29T03:51:30.703Z,13.91
2022-09-29T03:53:57.819Z,13.83
2022-09-29T03:56:24.766Z,13.64
2022-09-29T03:58:51.713Z,13.66
2022-09-29T04:01:18.668Z,13.86
2022-09-29T04:03:45.715Z,13.72
2022-09-29T04:06:12.926Z,13.96
2022-09-29T04:08:40.069Z,13.75
2022-09-29T04:11:07.431Z,13.74
2022-09-29T04:13:34.480Z,13.52
2022-09-29T04:16:06.271Z,13.67
2022-09-29T04:18:33.383Z,13.77
2022-09-29T04:21:05.174Z,13.69
2022-09-29T04:23:32.094Z,13.72
2022-09-29T04:26:01.273Z,13.66
2022-09-29T04:28:28.427Z,13.42
2022-09-29T04:30:55.476Z,13.42
2022-09-29T04:33:22.426Z,13.45
2022-09-29T04:35:49.408Z,13.48
2022-09-29T04:38:16.430Z,13.71
2022-09-29T04:40:43.526Z,13.69
2022-09-29T04:43:10.634Z,13.65
2022-09-29T04:45:37.669Z,13.46
2022-09-29T04:48:04.988Z,13.44
2022-09-29T04:50:32.142Z,13.50
2022-09-29T04:52:59.476Z,13.52
2022-09-29T04:55:26.714Z,13.45
2022-09-29T04:57:53.837Z,13.34
2022-09-29T05:00:21.599Z,13.53
2022-09-29T05:02:49.926Z,13.50
2022-09-29T05:05:17.610Z,13.68
2022-09-29T05:07:45.914Z,13.60
2022-09-29T05:10:12.936Z,13.58
2022-09-29T05:12:39.986Z,13.68
2022-09-29T05:15:07.506Z,13.62
2022-09-29T05:17:34.690Z,13.75
2022-09-29T05:20:01.906Z,13.57
2022-09-29T05:22:28.858Z,13.67
2022-09-29T05:24:55.799Z,13.88
2022-09-29T05:27:22.877Z,13.89
2022-09-29T05:29:52.477Z,14.00
2022-09-29T05:32:19.489Z,14.02
2022-09-29T05:34:46.492Z,14.04
2022-09-29T05:37:13.797Z,14.19
2022-09-29T05:39:42.126Z,14.17
2022-09-29T05:42:12.033Z,14.42
2022-09-29T05:44:39.160Z,14.38
2022-09-29T05:47:06.362Z,14.36
2022-09-29T05:49:33.381Z,14.45
2022-09-29T05:52:00.701Z,14.64
2022-09-29T05:54:27.789Z,14.70
2022-09-29T05:56:55.084Z,14.55
2022-09-29T05:59:22.211Z,14.45
2022-09-29T06:01:49.224Z,14.71
2022-09-29T06:04:17.604Z,14.69
2022-09-29T06:06:44.786Z,14.86
2022-09-29T06:09:12.048Z,14.96
2022-09-29T06:11:39.081Z,15.16
2022-09-29T06:14:06.186Z,15.26
2022-09-29T06:16:34.448Z,15.21
2022-09-29T06:19:02.414Z,15.26
2022-09-29T06:21:30.871Z,15.39
2022-09-29T06:23:58.661Z,15.49
2022-09-29T06:26:27.330Z,15.44
2022-09-29T06:28:55.721Z,15.74
2022-09-29T06:31:26.096Z,15.58
2022-09-29T06:33:53.615Z,15.77
2022-09-29T06:37:12.368Z,15.82
2022-09-29T06:39:39.284Z,16.00
2022-09-29T06:42:06.292Z,16.04
2022-09-29T06:44:33.437Z,16.00
2022-09-29T06:47:00.414Z,16.10
2022-09-29T06:49:27.498Z,16.19
2022-09-29T06:51:54.462Z,16.25
2022-09-29T06:54:25.341Z,16.15
2022-09-29T06:56:53.921Z,16.00
2022-09-29T06:59:21.230Z,16.27
2022-09-29T07:01:51.415Z,16.44
2022-09-29T07:04:22.222Z,16.43
2022-09-29T07:06:50.114Z,16.47
2022-09-29T07:09:17.699Z,16.58
2022-09-29T07:11:46.944Z,16.60
2022-09-29T07:14:15.214Z,16.61
2022-09-29T07:16:42.496Z,16.66
2022-09-29T07:19:10.229Z,16.57
2022-09-29T07:21:37.243Z,16.64
2022-09-29T07:24:04.419Z,16.64
2022-09-29T07:26:31.419Z,16.74
2022-09-29T07:28:58.659Z,16.75
2022-09-29T07:31:25.975Z,16.64
2022-09-29T07:33:53.260Z,16.99
2022-09-29T07:36:21.464Z,17.00
2022-09-29T07:38:50.595Z,16.92
2022-09-29T07:41:19.726Z,17.10
2022-09-29T07:43:46.758Z,17.16
2022-09-29T07:46:13.963Z,17.11
2022-09-29T07:48:41.333Z,17.20
2022-09-29T07:51:16.734Z,17.26
2022-09-29T07:53:44.269Z,17.31
2022-09-29T07:56:14.360Z,17.46
2022-09-29T07:58:42.334Z,17.43
2022-09-29T08:01:12.954Z,17.50
2022-09-29T08:03:41.962Z,17.49
2022-09-29T08:06:09.662Z,17.35
2022-09-29T08:08:38.457Z,17.47
2022-09-29T08:11:19.251Z,17.63
2022-09-29T08:13:53.316Z,17.67
2022-09-29T08:16:21.059Z,17.67
2022-09-29T08:18:48.184Z,17.43
2022-09-29T08:21:15.839Z,17.42
2022-09-29T08:23:43.904Z,17.58
2022-09-29T08:26:16.687Z,17.47
2022-09-29T08:28:44.573Z,17.50
2022-09-29T08:31:14.519Z,17.52
2022-09-29T08:33:41.640Z,17.61
2022-09-29T08:36:14.924Z,17.71
2022-09-29T08:38:52.853Z,17.86
2022-09-29T08:41:25.838Z,17.87
2022-09-29T08:43:57.470Z,17.74
2022-09-29T08:46:36.296Z,17.87
2022-09-29T08:49:28.647Z,18.05
2022-09-29T08:52:16.454Z,17.90
2022-09-29T08:54:49.410Z,18.20
2022-09-29T08:57:19.978Z,18.15
2022-09-29T08:59:57.881Z,18.38
2022-09-29T09:03:14.409Z,18.50
2022-09-29T09:06:01.315Z,18.57
2022-09-29T09:09:09.659Z,18.70
2022-09-29T09:11:54.081Z,18.75
2022-09-29T09:14:42.485Z,18.82
2022-09-29T09:17:25.677Z,18.86
2022-09-29T09:19:57.790Z,18.41
2022-09-29T09:22:32.419Z,18.89
2022-09-29T09:25:11.741Z,18.88
2022-09-29T09:27:44.589Z,18.97
2022-09-29T09:30:18.019Z,19.06
2022-09-29T09:32:54.418Z,18.92
2022-09-29T09:35:24.339Z,19.16
2022-09-29T09:37:54.686Z,19.08
2022-09-29T09:40:26.360Z,19.08
2022-09-29T09:43:03.124Z,18.98
2022-09-29T09:45:34.751Z,19.04
2022-09-29T09:48:22.104Z,19.19
2022-09-29T09:50:50.776Z,19.02
2022-09-29T09:53:27.133Z,19.23
2022-09-29T09:56:14.606Z,19.52
2022-09-29T09:59:37.493Z,19.62
2022-09-29T10:02:04.545Z,19.58
2022-09-29T10:04:34.057Z,19.66
2022-09-29T10:07:01.139Z,19.78
2022-09-29T10:09:29.214Z,19.90
2022-09-29T10:11:57.446Z,19.83
2022-09-29T10:14:26.508Z,19.94
2022-09-29T10:17:10.607Z,20.08
2022-09-29T10:20:00.338Z,20.24
2022-09-29T10:22:30.037Z,20.23
2022-09-29T10:25:20.004Z,20.20
2022-09-29T10:27:53.340Z,20.13
2022-09-29T10:30:33.495Z,19.93
2022-09-29T10:33:04.380Z,20.00
2022-09-29T10:35:38.056Z,20.10
2022-09-29T10:38:24.402Z,20.23
2022-09-29T10:41:04.030Z,20.28
2022-09-29T10:43:42.545Z,20.16
2022-09-29T10:46:37.826Z,20.04
2022-09-29T10:49:17.108Z,20.04
2022-09-29T10:51:56.798Z,19.79
2022-09-29T10:54:28.718Z,19.58
2022-09-29T10:56:57.462Z,19.76
2022-09-29T10:59:26.158Z,19.62
2022-09-29T11:01:58.966Z,19.60
2022-09-29T11:04:36.585Z,19.67
2022-09-29T11:07:21.906Z,19.97
2022-09-29T11:09:50.906Z,20.11
2022-09-29T11:12:27.158Z,20.04
2022-09-29T11:14:54.218Z,20.12
2022-09-29T11:17:24.008Z,20.07
2022-09-29T11:19:53.055Z,20.03
2022-09-29T11:22:51.123Z,19.95
2022-09-29T11:25:30.544Z,20.04
2022-09-29T11:28:28.564Z,20.12
2022-09-29T11:31:16.408Z,20.11
2022-09-29T11:34:27.905Z,20.21
2022-09-29T11:37:12.003Z,20.10
2022-09-29T11:39:45.694Z,20.25
2022-09-29T11:42:43.860Z,20.24
2022-09-29T11:48:11.549Z,20.39
2022-09-29T11:50:57.059Z,20.55
2022-09-29T11:53:31.218Z,20.61
2022-09-29T11:56:24.389Z,20.68
2022-09-29T11:59:10.558Z,20.51
2022-09-29T12:01:43.805Z,20.64
2022-09-29T12:04:23.858Z,20.61
2022-09-29T12:07:02.682Z,20.49
2022-09-29T12:09:58.782Z,20.59
2022-09-29T12:12:36.666Z,20.55
2022-09-29T12:15:08.417Z,20.79
2022-09-29T12:17:44.383Z,20.64
2022-09-29T12:20:34.657Z,20.74
2022-09-29T12:23:05.826Z,20.88
2022-09-29T12:25:38.262Z,20.85
2022-09-29T12:28:15.298Z,20.74
2022-09-29T12:30:51.467Z,20.64
2022-09-29T12:33:24.230Z,20.97
2022-09-29T12:36:28.033Z,20.97
2022-09-29T12:39:00.520Z,20.79
2022-09-29T12:41:36.064Z,20.90
2022-09-29T12:44:16.854Z,20.89
2022-09-29T12:46:54.822Z,20.66
2022-09-29T12:49:29.700Z,20.86
2022-09-29T12:51:57.364Z,20.86
2022-09-29T12:54:28.781Z,20.81
2022-09-29T12:57:06.363Z,20.74
2022-09-29T12:59:57.565Z,20.63
2022-09-29T13:02:39.419Z,20.70
2022-09-29T13:05:06.396Z,20.60
2022-09-29T13:07:51.249Z,20.62
2022-09-29T13:10:57.004Z,20.51
2022-09-29T13:13:47.062Z,20.44
2022-09-29T13:16:36.501Z,20.52
2022-09-29T13:19:39.729Z,20.48
2022-09-29T13:22:41.859Z,20.36
2022-09-29T13:25:28.539Z,20.27
2022-09-29T13:27:58.751Z,20.16
2022-09-29T13:30:37.283Z,20.01
2022-09-29T13:33:18.859Z,19.72
2022-09-29T13:35:48.657Z,20.14
2022-09-29T13:38:23.893Z,20.01
2022-09-29T13:41:15.379Z,19.80
2022-09-29T13:43:51.277Z,19.71
2022-09-29T13:46:30.391Z,19.72
2022-09-29T13:49:09.652Z,19.64
2022-09-29T13:51:47.982Z,19.63
2022-09-29T13:54:31.685Z,19.43
2022-09-29T13:57:12.634Z,19.33
2022-09-29T14:00:02.529Z,19.29
2022-09-29T14:02:48.901Z,19.16
2022-09-29T14:05:25.114Z,19.14
2022-09-29T14:07:55.079Z,19.12
2022-09-29T14:10:39.496Z,19.07
2022-09-29T14:13:06.386Z,19.09
2022-09-29T14:15:41.743Z,19.04
2022-09-29T14:18:27.109Z,18.87
2022-09-29T14:21:03.793Z,18.97
2022-09-29T14:23:45.986Z,18.92
2022-09-29T14:26:48.601Z,18.91
2022-09-29T14:29:28.961Z,18.75
2022-09-29T14:31:59.348Z,18.73
2022-09-29T14:34:30.636Z,18.61
2022-09-29T14:37:00.648Z,18.67
2022-09-29T14:39:29.815Z,18.65
2022-09-29T14:41:56.967Z,18.55
2022-09-29T14:44:54.895Z,18.41
2022-09-29T14:48:03.896Z,18.57
2022-09-29T14:51:12.554Z,18.70
2022-09-29T14:53:58.828Z,18.57
2022-09-29T14:57:04.046Z,18.46
2022-09-29T14:59:47.342Z,18.36
2022-09-29T15:02:20.890Z,18.34
2022-09-29T15:04:48.458Z,17.90
2022-09-29T15:07:18.868Z,18.18
2022-09-29T15:09:57.393Z,18.29
2022-09-29T15:12:31.786Z,18.27
2022-09-29T15:15:00.414Z,18.25
2022-09-29T15:17:49.567Z,18.22
2022-09-29T15:20:23.680Z,18.13
2022-09-29T15:23:05.870Z,18.04
2022-09-29T15:25:37.521Z,17.98
2022-09-29T15:28:45.034Z,17.90
2022-09-29T15:31:20.117Z,17.87
2022-09-29T15:33:48.128Z,17.91
2022-09-29T15:36:18.326Z,17.89
2022-09-29T15:38:45.688Z,17.64
2022-09-29T15:41:16.894Z,17.63
2022-09-29T15:43:54.363Z,17.50
2022-09-29T15:46:35.348Z,17.56
2022-09-29T15:49:18.310Z,17.49
2022-09-29T15:51:57.242Z,17.40
2022-09-29T15:54:26.413Z,17.30
2022-09-29T15:57:12.122Z,17.12
2022-09-29T15:59:39.094Z,17.10
2022-09-29T16:02:08.090Z,17.00
2022-09-29T16:04:36.175Z,16.94
2022-09-29T16:07:03.891Z,17.02
2022-09-29T16:09:31.107Z,16.86
2022-09-29T16:11:58.921Z,16.70
2022-09-29T16:14:28.340Z,16.88
2022-09-29T16:16:59.070Z,16.97
2022-09-29T16:19:32.291Z,16.98
2022-09-29T16:22:06.594Z,17.06
2022-09-29T16:24:53.418Z,16.77
2022-09-29T16:27:40.901Z,16.86
2022-09-29T16:30:26.437Z,16.93
2022-09-29T16:32:57.332Z,16.60
2022-09-29T16:35:57.537Z,16.82
2022-09-29T16:39:01.187Z,16.77
2022-09-29T16:41:35.951Z,16.42
2022-09-29T16:44:09.893Z,16.67
2022-09-29T16:46:52.310Z,16.64
2022-09-29T16:49:55.326Z,16.72
2022-09-29T16:52:50.785Z,16.75
2022-09-29T16:55:22.126Z,16.48
2022-09-29T16:57:55.123Z,16.75
2022-09-29T17:00:22.738Z,16.66
2022-09-29T17:02:53.580Z,16.86
2022-09-29T17:05:22.086Z,16.82
2022-09-29T17:07:50.176Z,17.18
2022-09-29T17:10:21.528Z,16.89
2022-09-29T17:12:48.493Z,16.94
2022-09-29T17:15:17.268Z,17.02
2022-09-29T17:17:48.617Z,16.83
2022-09-29T17:20:18.802Z,16.90
2022-09-29T17:22:46.419Z,16.69
2022-09-29T17:25:14.167Z,16.75
2022-09-29T17:28:02.931Z,16.84
2022-09-29T17:30:29.990Z,16.97
2022-09-29T17:32:59.065Z,17.00
2022-09-29T17:35:32.137Z,17.00
2022-09-29T17:37:59.518Z,17.03
2022-09-29T17:40:33.505Z,17.04
2022-09-29T17:43:02.292Z,16.72
2022-09-29T17:45:30.642Z,17.05
2022-09-29T17:47:58.438Z,17.09
2022-09-29T17:50:56.474Z,17.10
2022-09-29T17:53:25.523Z,16.93
2022-09-29T17:55:56.004Z,17.18
2022-09-29T17:58:23.547Z,17.07
2022-09-29T18:00:52.957Z,17.07
2022-09-29T18:03:21.663Z,17.07
2022-09-29T18:05:56.199Z,16.89
2022-09-29T18:08:26.059Z,17.04
2022-09-29T18:10:54.600Z,17.15
2022-09-29T18:13:23.594Z,17.06
2022-09-29T18:15:50.765Z,17.26
2022-09-29T18:18:20.878Z,17.19
2022-09-29T18:20:50.750Z,17.19
2022-09-29T18:23:20.568Z,16.90
2022-09-29T18:25:50.162Z,16.77
2022-09-29T18:28:18.192Z,16.93
2022-09-29T18:30:49.139Z,16.97
2022-09-29T18:33:18.979Z,16.78
2022-09-29T18:35:51.901Z,16.80
2022-09-29T18:38:18.855Z,16.82
2022-09-29T18:40:47.316Z,16.99
2022-09-29T18:43:15.188Z,16.99
2022-09-29T18:45:43.587Z,17.02
2022-09-29T18:48:12.639Z,16.77
2022-09-29T18:50:51.274Z,16.86
2022-09-29T18:53:21.187Z,17.01
2022-09-29T18:55:52.486Z,16.97
2022-09-29T18:58:21.212Z,16.87
2022-09-29T19:00:50.642Z,16.96
2022-09-29T19:03:19.332Z,16.74
2022-09-29T19:05:48.137Z,16.70
2022-09-29T19:08:16.443Z,16.91
2022-09-29T19:10:54.948Z,16.87
2022-09-29T19:13:22.645Z,16.81
2022-09-29T19:15:49.806Z,16.80
2022-09-29T19:18:25.292Z,16.84
2022-09-29T19:20:55.705Z,16.83
2022-09-29T19:23:25.367Z,16.57
2022-09-29T19:25:53.920Z,16.58
2022-09-29T19:28:22.508Z,16.91
2022-09-29T19:30:50.302Z,16.95
2022-09-29T19:33:20.429Z,16.80
2022-09-29T19:35:51.323Z,16.73
2022-09-29T19:38:19.658Z,16.78
2022-09-29T19:40:47.346Z,16.70
2022-09-29T19:43:14.697Z,16.74
2022-09-29T19:45:43.345Z,16.81
2022-09-29T19:48:14.967Z,16.39
2022-09-29T19:51:00.884Z,16.71
2022-09-29T19:53:28.472Z,16.60
2022-09-29T19:55:55.428Z,16.30
2022-09-29T19:58:23.813Z,16.21
2022-09-29T20:00:56.873Z,16.32
2022-09-29T20:03:23.923Z,16.05
2022-09-29T20:05:50.916Z,16.13
2022-09-29T20:08:17.839Z,16.28
2022-09-29T20:10:44.782Z,16.28
2022-09-29T20:13:14.829Z,16.15
2022-09-29T20:15:45.014Z,16.41
2022-09-29T20:18:14.020Z,16.12
2022-09-29T20:20:42.507Z,16.06
2022-09-29T20:23:09.464Z,16.32
2022-09-29T20:25:36.338Z,16.31
2022-09-29T20:28:05.411Z,16.30
2022-09-29T20:30:32.456Z,16.11
2022-09-29T20:32:59.424Z,16.27
2022-09-29T20:35:26.426Z,16.06
2022-09-29T20:37:53.701Z,16.19
2022-09-29T20:40:20.628Z,16.13
2022-09-29T20:42:48.809Z,16.12
2022-09-29T20:45:16.390Z,16.16
2022-09-29T20:47:43.655Z,15.87
2022-09-29T20:50:10.705Z,15.97
2022-09-29T20:52:37.527Z,16.01
2022-09-29T20:55:05.016Z,15.69
2022-09-29T20:57:32.505Z,15.69
2022-09-29T20:59:59.651Z,15.76
2022-09-29T21:02:27.364Z,15.87
2022-09-29T21:04:54.334Z,15.61
2022-09-29T21:07:36.292Z,15.95
2022-09-29T21:10:05.674Z,15.81
2022-09-29T21:12:33.095Z,15.75
2022-09-29T21:15:00.730Z,15.90
2022-09-29T21:17:27.764Z,15.98
2022-09-29T21:19:55.238Z,15.86
2022-09-29T21:22:27.229Z,15.95
2022-09-29T21:24:55.063Z,15.63
2022-09-29T21:27:22.227Z,15.75
2022-09-29T21:29:49.163Z,15.97
2022-09-29T21:32:16.131Z,15.80
2022-09-29T21:34:43.123Z,15.72
2022-09-29T21:37:10.257Z,15.74
2022-09-29T21:39:37.304Z,15.80
2022-09-29T21:42:04.670Z,15.88
2022-09-29T21:44:31.725Z,15.92
2022-09-29T21:46:58.795Z,15.91
2022-09-29T21:49:25.791Z,15.69
2022-09-29T21:51:52.761Z,15.86
2022-09-29T21:54:23.016Z,15.83
2022-09-29T21:56:51.311Z,15.77
2022-09-29T21:59:20.725Z,15.69
2022-09-29T22:01:48.311Z,15.88
2022-09-29T22:04:16.152Z,15.76
2022-09-29T22:06:45.031Z,15.53
2022-09-29T22:09:16.082Z,15.55
2022-09-29T22:11:43.153Z,15.59
2022-09-29T22:14:13.015Z,15.29
2022-09-29T22:16:40.616Z,15.39
2022-09-29T22:19:24.664Z,15.62
2022-09-29T22:21:53.901Z,15.57
2022-09-29T22:24:21.153Z,15.39
2022-09-29T22:26:48.284Z,15.47
2022-09-29T22:29:15.560Z,15.29
2022-09-29T22:31:42.717Z,15.09
2022-09-29T22:34:11.410Z,15.34
2022-09-29T22:36:39.504Z,15.54
2022-09-29T22:39:07.691Z,15.12
2022-09-29T22:41:37.043Z,15.28
2022-09-29T22:44:04.658Z,15.53
2022-09-29T22:46:32.450Z,14.95
2022-09-29T22:48:59.734Z,15.54
2022-09-29T22:51:27.388Z,15.37
2022-09-29T22:53:54.440Z,15.49
2022-09-29T22:56:28.609Z,15.57
2022-09-29T22:59:01.236Z,15.49
2022-09-29T23:01:29.287Z,15.44
2022-09-29T23:03:56.412Z,15.24
2022-09-29T23:06:23.422Z,15.29
2022-09-29T23:08:50.649Z,15.19
2022-09-29T23:11:19.583Z,15.34
2022-09-29T23:13:47.714Z,15.40
2022-09-29T23:16:16.701Z,15.40
2022-09-29T23:18:45.829Z,15.41
2022-09-29T23:21:19.635Z,15.36
2022-09-29T23:23:59.730Z,15.38
2022-09-29T23:26:29.198Z,14.98
2022-09-29T23:28:56.265Z,15.34
2022-09-29T23:31:23.791Z,15.13
2022-09-29T23:33:52.999Z,15.33
2022-09-29T23:36:20.343Z,15.33
2022-09-29T23:39:05.712Z,15.18
2022-09-29T23:41:33.432Z,14.98
2022-09-29T23:44:05.674Z,15.27
2022-09-29T23:46:35.890Z,15.31
2022-09-29T23:49:09.421Z,14.94
2022-09-29T23:51:38.776Z,15.20
2022-09-29T23:54:07.533Z,15.16
2022-09-29T23:56:35.166Z,15.18
2022-09-29T23:59:02.436Z,15.12
